Leonore, Illinois
Current Conditions -  °F | °C
As of 7:15 AM on Sunday 23 Nov 2014 (Local Time) from KVYS Reporting Station
Overcast Overcast  
Wind Chill:   Ceiling: 4300
Heat Index: 10°   Visibility: 10mi
Dew Point:   Wind: 10mph
Humidity: 78%   Direction: 170°S
Pressure: 29.72"   Gusts: NA
Location:  41.19°N, 88.98°W
Report Text: KVYS 231315Z AUTO 17009KT 10SM BKN043 OVC048 10/06 A2972 RMK AO2 T00960060
Loading
Personal Weather Stations






























Interactive Weather Map New forecast layout! Learn more

10-Day Weather Forecast

Advertisements
Track Severe Weather on mobile